createdAt,value
2019-03-01T00:01:53.234Z,5.80
2019-03-01T00:05:10.411Z,5.80
2019-03-01T00:08:17.578Z,5.70
2019-03-01T00:11:21.877Z,5.70
2019-03-01T00:14:59.790Z,5.80
2019-03-01T00:18:02.491Z,5.90
2019-03-01T00:21:20.593Z,5.70
2019-03-01T00:24:40.202Z,5.80
2019-03-01T00:28:04.037Z,5.90
2019-03-01T00:31:24.421Z,6.00
2019-03-01T00:34:58.949Z,6.10
2019-03-01T00:38:49.651Z,6.00
2019-03-01T00:42:06.677Z,6.10
2019-03-01T00:44:48.060Z,6.10
2019-03-01T00:47:18.563Z,5.90
2019-03-01T00:49:50.097Z,6.00
2019-03-01T00:52:21.682Z,6.00
2019-03-01T00:54:53.153Z,6.10
2019-03-01T00:57:24.698Z,6.10
2019-03-01T00:59:56.193Z,6.20
2019-03-01T01:02:27.717Z,6.30
2019-03-01T01:04:59.175Z,6.20
2019-03-01T01:07:30.733Z,6.20
2019-03-01T01:10:02.185Z,6.20
2019-03-01T01:12:33.733Z,6.20
2019-03-01T01:15:05.601Z,6.30
2019-03-01T01:17:39.962Z,6.30
2019-03-01T01:20:11.643Z,6.30
2019-03-01T01:22:43.173Z,6.30
2019-03-01T01:25:14.756Z,6.30
2019-03-01T01:27:46.288Z,6.30
2019-03-01T01:30:17.928Z,6.40
2019-03-01T01:32:49.454Z,6.40
2019-03-01T01:35:22.031Z,6.40
2019-03-01T01:37:53.538Z,6.40
2019-03-01T01:40:25.085Z,6.20
2019-03-01T01:42:56.584Z,6.10
2019-03-01T01:45:28.049Z,6.10
2019-03-01T01:47:59.592Z,6.20
2019-03-01T01:50:31.036Z,6.20
2019-03-01T01:53:02.525Z,6.30
2019-03-01T01:55:33.968Z,6.20
2019-03-01T01:58:05.434Z,6.30
2019-03-01T02:00:37.137Z,6.30
2019-03-01T02:03:08.612Z,6.30
2019-03-01T02:05:40.066Z,6.30
2019-03-01T02:08:11.543Z,6.30
2019-03-01T02:10:42.975Z,6.30
2019-03-01T02:13:14.465Z,6.30
2019-03-01T02:15:46.157Z,6.40
2019-03-01T02:18:17.712Z,6.40
2019-03-01T02:20:49.168Z,6.40
2019-03-01T02:23:20.720Z,6.50
2019-03-01T02:25:52.216Z,6.30
2019-03-01T02:28:25.427Z,6.30
2019-03-01T02:31:06.461Z,6.40
2019-03-01T02:33:37.957Z,6.40
2019-03-01T02:36:09.417Z,6.40
2019-03-01T02:39:00.194Z,6.40
2019-03-01T02:41:31.799Z,6.50
2019-03-01T02:44:03.337Z,6.60
2019-03-01T02:46:34.788Z,6.60
2019-03-01T02:49:06.272Z,6.60
2019-03-01T02:51:39.668Z,6.60
2019-03-01T02:54:11.147Z,6.50
2019-03-01T02:56:42.756Z,6.60
2019-03-01T02:59:14.263Z,6.60
2019-03-01T03:01:45.694Z,6.50
2019-03-01T03:04:17.136Z,6.50
2019-03-01T03:06:57.596Z,6.50
2019-03-01T03:09:29.105Z,6.50
2019-03-01T03:12:00.564Z,6.50
2019-03-01T03:14:32.206Z,6.50
2019-03-01T03:17:03.766Z,6.40
2019-03-01T03:19:35.331Z,6.40
2019-03-01T03:22:11.878Z,6.30
2019-03-01T03:24:43.403Z,6.30
2019-03-01T03:27:14.864Z,6.40
2019-03-01T03:29:46.330Z,6.30
2019-03-01T03:32:17.760Z,6.30
2019-03-01T03:34:49.211Z,6.20
2019-03-01T03:37:20.636Z,6.20
2019-03-01T03:39:52.119Z,6.30
2019-03-01T03:42:23.564Z,6.20
2019-03-01T03:44:54.998Z,6.20
2019-03-01T03:47:26.447Z,6.10
2019-03-01T03:49:57.936Z,6.10
2019-03-01T03:52:29.658Z,6.00
2019-03-01T03:55:02.830Z,6.00
2019-03-01T03:57:34.291Z,5.90
2019-03-01T04:00:08.795Z,6.00
2019-03-01T04:02:40.355Z,6.00
2019-03-01T04:05:12.378Z,6.10
2019-03-01T04:07:43.864Z,6.10
2019-03-01T04:10:15.372Z,6.10
2019-03-01T04:12:47.032Z,6.10
2019-03-01T04:15:18.687Z,6.10
2019-03-01T04:17:50.191Z,6.00
2019-03-01T04:20:21.653Z,6.10
2019-03-01T04:22:53.093Z,6.00
2019-03-01T04:25:24.562Z,5.90
2019-03-01T04:27:56.097Z,5.70
2019-03-01T04:30:27.577Z,5.70
2019-03-01T04:32:59.015Z,5.70
2019-03-01T04:35:30.523Z,5.60
2019-03-01T04:38:01.953Z,5.60
2019-03-01T04:40:33.429Z,5.60
2019-03-01T04:43:04.855Z,5.70
2019-03-01T04:45:36.338Z,5.60
2019-03-01T04:48:07.814Z,5.60
2019-03-01T04:50:39.313Z,5.70
2019-03-01T04:53:10.762Z,5.70
2019-03-01T04:55:42.207Z,5.70
2019-03-01T04:58:13.643Z,5.80
2019-03-01T05:00:45.236Z,5.90
2019-03-01T05:03:16.678Z,5.80
2019-03-01T05:05:48.511Z,5.80
2019-03-01T05:08:20.091Z,5.80
2019-03-01T05:10:57.786Z,5.80
2019-03-01T05:13:29.221Z,5.80
2019-03-01T05:16:00.762Z,5.70
2019-03-01T05:18:32.191Z,5.60
2019-03-01T05:21:03.709Z,5.60
2019-03-01T05:23:35.162Z,5.60
2019-03-01T05:26:10.303Z,5.70
2019-03-01T05:28:41.770Z,5.70
2019-03-01T05:31:13.339Z,5.70
2019-03-01T05:33:46.039Z,5.70
2019-03-01T05:36:17.497Z,5.60
2019-03-01T05:38:48.953Z,5.40
2019-03-01T05:41:20.457Z,5.40
2019-03-01T05:43:51.905Z,5.40
2019-03-01T05:46:23.559Z,5.40
2019-03-01T05:48:55.361Z,5.40
2019-03-01T05:51:26.895Z,5.30
2019-03-01T05:53:58.447Z,5.20
2019-03-01T05:56:30.085Z,5.20
2019-03-01T05:59:28.283Z,5.10
2019-03-01T06:02:35.611Z,5.00
2019-03-01T06:05:19.759Z,5.00
2019-03-01T06:08:49.664Z,5.00
2019-03-01T06:11:47.048Z,5.00
2019-03-01T06:14:49.955Z,5.00
2019-03-01T06:18:29.853Z,5.00
2019-03-01T06:21:48.079Z,5.00
2019-03-01T06:25:31.257Z,5.00
2019-03-01T06:29:10.783Z,5.00
2019-03-01T06:32:34.039Z,5.10
2019-03-01T06:35:22.528Z,5.00
2019-03-01T06:39:05.579Z,5.00
2019-03-01T06:42:12.157Z,5.00
2019-03-01T06:45:29.012Z,4.90
2019-03-01T06:48:00.456Z,4.90
2019-03-01T06:50:47.527Z,4.90
2019-03-01T06:53:18.935Z,4.90
2019-03-01T06:56:01.815Z,5.00
2019-03-01T06:58:40.259Z,5.00
2019-03-01T07:01:25.845Z,4.90
2019-03-01T07:04:06.122Z,4.90
2019-03-01T07:06:39.245Z,4.90
2019-03-01T07:09:10.798Z,4.80
2019-03-01T07:11:42.441Z,4.80
2019-03-01T07:14:13.933Z,4.70
2019-03-01T07:16:46.945Z,4.70
2019-03-01T07:19:18.635Z,4.70
2019-03-01T07:21:50.117Z,4.70
2019-03-01T07:24:21.696Z,4.70
2019-03-01T07:26:53.187Z,4.80
2019-03-01T07:29:24.632Z,4.80
2019-03-01T07:31:56.129Z,4.80
2019-03-01T07:34:27.574Z,4.70
2019-03-01T07:36:59.031Z,4.70
2019-03-01T07:39:30.526Z,4.60
2019-03-01T07:42:02.014Z,4.60
2019-03-01T07:44:34.437Z,4.60
2019-03-01T07:47:05.922Z,4.60
2019-03-01T07:49:38.336Z,4.60
2019-03-01T07:52:09.788Z,4.60
2019-03-01T07:54:41.276Z,4.50
2019-03-01T07:57:14.772Z,4.50
2019-03-01T07:59:46.006Z,4.60
2019-03-01T08:02:17.915Z,4.60
2019-03-01T08:04:50.649Z,4.60
2019-03-01T08:07:23.582Z,4.60
2019-03-01T08:09:55.312Z,4.60
2019-03-01T08:12:26.794Z,4.60
2019-03-01T08:14:58.286Z,4.50
2019-03-01T08:17:31.578Z,4.50
2019-03-01T08:20:16.676Z,4.40
2019-03-01T08:22:56.794Z,4.40
2019-03-01T08:25:28.441Z,4.40
2019-03-01T08:28:02.450Z,4.50
2019-03-01T08:30:34.060Z,4.50
2019-03-01T08:33:07.953Z,4.50
2019-03-01T08:35:39.632Z,4.40
2019-03-01T08:38:11.151Z,4.40
2019-03-01T08:40:42.888Z,4.40
2019-03-01T08:43:14.508Z,4.40
2019-03-01T08:45:47.889Z,4.50
2019-03-01T08:48:19.490Z,4.50
2019-03-01T08:50:52.160Z,4.50
2019-03-01T08:53:24.202Z,4.50
2019-03-01T08:56:00.088Z,4.50
2019-03-01T08:58:37.698Z,4.60
2019-03-01T09:01:09.841Z,4.70
2019-03-01T09:03:59.911Z,4.80
2019-03-01T09:06:31.674Z,4.80
2019-03-01T09:09:08.564Z,4.90
2019-03-01T09:11:44.588Z,4.80
2019-03-01T09:14:15.946Z,4.80
2019-03-01T09:16:50.616Z,4.80
2019-03-01T09:19:25.180Z,4.90
2019-03-01T09:21:55.400Z,5.00
2019-03-01T09:24:32.905Z,4.80
2019-03-01T09:27:04.600Z,4.80
2019-03-01T09:29:41.631Z,4.70
2019-03-01T09:32:09.618Z,4.70
2019-03-01T09:34:41.328Z,4.70
2019-03-01T09:37:17.038Z,4.80
2019-03-01T09:39:53.663Z,4.80
2019-03-01T09:42:26.456Z,4.90
2019-03-01T09:45:00.456Z,4.80
2019-03-01T09:47:33.528Z,4.80
2019-03-01T09:50:10.213Z,4.90
2019-03-01T09:52:41.961Z,4.90
2019-03-01T09:55:13.950Z,4.90
2019-03-01T09:57:45.624Z,4.90
2019-03-01T10:00:18.998Z,5.10
2019-03-01T10:02:52.340Z,5.10
2019-03-01T10:05:23.794Z,5.10
2019-03-01T10:07:55.252Z,5.20
2019-03-01T10:10:28.865Z,5.10
2019-03-01T10:13:00.249Z,5.20
2019-03-01T10:15:34.104Z,5.20
2019-03-01T10:18:05.765Z,5.20
2019-03-01T10:20:37.415Z,5.20
2019-03-01T10:23:10.146Z,5.20
2019-03-01T10:25:44.895Z,5.30
2019-03-01T10:28:16.717Z,5.50
2019-03-01T10:30:48.579Z,5.50
2019-03-01T10:33:20.111Z,5.40
2019-03-01T10:35:52.109Z,5.50
2019-03-01T10:38:23.699Z,5.60
2019-03-01T10:40:55.662Z,5.80
2019-03-01T10:43:27.188Z,5.70
2019-03-01T10:45:58.743Z,5.70
2019-03-01T10:48:30.189Z,5.80
2019-03-01T10:51:01.674Z,5.90
2019-03-01T10:53:33.117Z,6.00
2019-03-01T10:56:06.656Z,6.10
2019-03-01T10:58:38.212Z,6.30
2019-03-01T11:01:10.309Z,6.40
2019-03-01T11:03:41.748Z,6.30
2019-03-01T11:06:13.250Z,6.20
2019-03-01T11:08:44.711Z,6.10
2019-03-01T11:11:16.270Z,6.10
2019-03-01T11:13:55.757Z,6.10
2019-03-01T11:16:27.291Z,6.10
2019-03-01T11:18:58.828Z,6.10
2019-03-01T11:21:33.552Z,6.30
2019-03-01T11:24:05.105Z,6.30
2019-03-01T11:26:36.640Z,6.50
2019-03-01T11:29:08.107Z,6.30
2019-03-01T11:31:39.619Z,6.50
2019-03-01T11:34:11.096Z,6.60
2019-03-01T11:36:42.635Z,6.80
2019-03-01T11:39:15.875Z,6.90
2019-03-01T11:41:47.435Z,6.90
2019-03-01T11:44:19.064Z,6.80
2019-03-01T11:46:50.783Z,6.70
2019-03-01T11:49:22.744Z,6.70
2019-03-01T11:51:55.655Z,6.80
2019-03-01T11:54:30.441Z,6.80
2019-03-01T11:57:08.947Z,6.90
2019-03-01T11:59:56.511Z,6.90
2019-03-01T12:02:28.242Z,7.00
2019-03-01T12:04:59.892Z,7.00
2019-03-01T12:07:31.550Z,7.10
2019-03-01T12:10:03.065Z,6.90
2019-03-01T12:12:34.691Z,6.90
2019-03-01T12:15:07.022Z,6.90
2019-03-01T12:17:38.624Z,7.10
2019-03-01T12:20:15.653Z,7.20
2019-03-01T12:22:47.373Z,7.30
2019-03-01T12:25:18.831Z,7.40
2019-03-01T12:27:50.352Z,7.40
2019-03-01T12:30:27.507Z,7.40
2019-03-01T12:32:59.009Z,7.40
2019-03-01T12:35:30.791Z,7.50
2019-03-01T12:38:02.524Z,7.50
2019-03-01T12:40:34.092Z,7.40
2019-03-01T12:43:06.262Z,7.60
2019-03-01T12:45:37.982Z,7.70
2019-03-01T12:48:09.623Z,7.80
2019-03-01T12:50:44.589Z,7.70
2019-03-01T12:53:16.194Z,7.80
2019-03-01T12:55:47.823Z,7.80
2019-03-01T12:58:19.830Z,7.90
2019-03-01T13:00:54.566Z,7.90
2019-03-01T13:03:30.080Z,7.90
2019-03-01T13:06:03.844Z,7.90
2019-03-01T13:08:35.050Z,7.80
2019-03-01T13:11:12.576Z,7.90
2019-03-01T13:13:42.775Z,7.90
2019-03-01T13:16:14.297Z,7.70
2019-03-01T13:18:47.619Z,7.60
2019-03-01T13:21:19.058Z,7.60
2019-03-01T13:23:53.709Z,7.60
2019-03-01T13:26:25.233Z,7.60
2019-03-01T13:28:56.790Z,7.60
2019-03-01T13:31:28.382Z,7.50
2019-03-01T13:34:02.724Z,7.50
2019-03-01T13:36:36.202Z,7.60
2019-03-01T13:39:10.445Z,7.60
2019-03-01T13:41:45.200Z,7.50
2019-03-01T13:44:36.146Z,7.50
2019-03-01T13:47:09.461Z,7.70
2019-03-01T13:49:41.161Z,7.70
2019-03-01T13:52:15.146Z,7.70
2019-03-01T13:54:48.006Z,7.70
2019-03-01T13:57:19.553Z,7.60
2019-03-01T13:59:51.107Z,7.50
2019-03-01T14:02:22.775Z,7.70
2019-03-01T14:04:54.385Z,7.70
2019-03-01T14:07:25.961Z,7.70
2019-03-01T14:09:57.496Z,7.70
2019-03-01T14:12:28.989Z,7.60
2019-03-01T14:15:03.025Z,7.70
2019-03-01T14:17:34.666Z,7.60
2019-03-01T14:20:08.768Z,7.40
2019-03-01T14:22:40.258Z,7.40
2019-03-01T14:25:12.136Z,7.30
2019-03-01T14:27:44.714Z,7.30
2019-03-01T14:30:19.282Z,7.50
2019-03-01T14:32:57.043Z,7.40
2019-03-01T14:35:26.825Z,7.30
2019-03-01T14:37:58.679Z,7.30
2019-03-01T14:40:50.372Z,7.30
2019-03-01T14:43:23.959Z,7.30
2019-03-01T14:45:55.729Z,7.30
2019-03-01T14:48:27.680Z,7.40
2019-03-01T14:50:59.390Z,7.60
2019-03-01T14:53:34.283Z,7.60
2019-03-01T14:56:13.721Z,7.50
2019-03-01T14:59:12.222Z,7.40
2019-03-01T15:02:23.458Z,7.40
2019-03-01T15:04:55.272Z,7.40
2019-03-01T15:07:27.895Z,7.40
2019-03-01T15:10:00.430Z,7.30
2019-03-01T15:12:31.980Z,7.40
2019-03-01T15:15:03.542Z,7.40
2019-03-01T15:17:38.320Z,7.40
2019-03-01T15:20:12.368Z,7.30
2019-03-01T15:22:48.792Z,7.30
2019-03-01T15:25:19.078Z,7.40
2019-03-01T15:27:51.246Z,7.50
2019-03-01T15:30:26.691Z,7.50
2019-03-01T15:32:58.467Z,7.60
2019-03-01T15:35:30.069Z,7.50
2019-03-01T15:38:02.100Z,7.40
2019-03-01T15:40:36.625Z,7.40
2019-03-01T15:43:09.296Z,7.30
2019-03-01T15:45:40.927Z,7.30
2019-03-01T15:48:12.602Z,7.30
2019-03-01T15:50:44.231Z,7.30
2019-03-01T15:53:15.728Z,7.30
2019-03-01T15:55:49.942Z,7.20
2019-03-01T15:58:21.542Z,7.20
2019-03-01T16:00:54.442Z,7.20
2019-03-01T16:03:25.968Z,7.20
2019-03-01T16:05:57.480Z,7.40
2019-03-01T16:08:28.998Z,7.40
2019-03-01T16:11:00.594Z,7.40
2019-03-01T16:13:32.177Z,7.40
2019-03-01T16:16:03.653Z,7.50
2019-03-01T16:18:38.909Z,7.20
2019-03-01T16:21:08.729Z,7.30
2019-03-01T16:23:40.352Z,7.30
2019-03-01T16:26:13.037Z,7.20
2019-03-01T16:28:44.898Z,7.10
2019-03-01T16:31:16.548Z,7.00
2019-03-01T16:33:48.152Z,7.10
2019-03-01T16:36:26.517Z,7.20
2019-03-01T16:38:59.137Z,7.10
2019-03-01T16:41:30.639Z,7.10
2019-03-01T16:44:05.488Z,7.10
2019-03-01T16:46:35.750Z,7.10
2019-03-01T16:49:07.216Z,7.20
2019-03-01T16:51:38.871Z,7.10
2019-03-01T16:54:15.296Z,7.20
2019-03-01T16:56:43.807Z,7.10
2019-03-01T16:59:15.482Z,7.00
2019-03-01T17:01:47.152Z,6.90
2019-03-01T17:04:18.750Z,7.00
2019-03-01T17:06:51.063Z,6.80
2019-03-01T17:09:22.775Z,6.80
2019-03-01T17:11:56.017Z,6.80
2019-03-01T17:14:27.562Z,6.80
2019-03-01T17:17:02.344Z,6.80
2019-03-01T17:19:35.450Z,6.80
2019-03-01T17:22:06.932Z,6.80
2019-03-01T17:24:38.940Z,6.80
2019-03-01T17:27:12.144Z,6.70
2019-03-01T17:29:46.043Z,6.70
2019-03-01T17:32:17.531Z,6.60
2019-03-01T17:34:49.289Z,6.60
2019-03-01T17:37:21.033Z,6.70
2019-03-01T17:39:53.112Z,6.70
2019-03-01T17:42:25.853Z,6.70
2019-03-01T17:44:58.871Z,6.60
2019-03-01T17:47:30.379Z,6.50
2019-03-01T17:50:02.131Z,6.50
2019-03-01T17:52:33.871Z,6.40
2019-03-01T17:55:06.338Z,6.40
2019-03-01T17:57:40.287Z,6.40
2019-03-01T18:00:21.754Z,6.40
2019-03-01T18:02:53.306Z,6.30
2019-03-01T18:05:25.047Z,6.30
2019-03-01T18:08:03.527Z,6.30
2019-03-01T18:10:36.249Z,6.40
2019-03-01T18:13:07.821Z,6.50
2019-03-01T18:15:41.261Z,6.40
2019-03-01T18:18:13.216Z,6.40
2019-03-01T18:20:44.758Z,6.40
2019-03-01T18:23:18.318Z,6.50
2019-03-01T18:25:49.818Z,6.50
2019-03-01T18:28:21.293Z,6.40
2019-03-01T18:30:56.370Z,6.40
2019-03-01T18:33:31.429Z,6.50
2019-03-01T18:36:03.443Z,6.40
2019-03-01T18:38:35.169Z,6.40
2019-03-01T18:41:06.763Z,6.40
2019-03-01T18:43:38.257Z,6.30
2019-03-01T18:46:09.829Z,6.30
2019-03-01T18:48:43.946Z,6.30
2019-03-01T18:51:17.449Z,6.30
2019-03-01T18:53:51.808Z,6.40
2019-03-01T18:56:28.687Z,6.40
2019-03-01T18:59:00.976Z,6.40
2019-03-01T19:01:32.725Z,6.50
2019-03-01T19:04:04.840Z,6.40
2019-03-01T19:06:36.603Z,6.30
2019-03-01T19:09:12.714Z,6.30
2019-03-01T19:11:43.544Z,6.10
2019-03-01T19:14:15.152Z,6.20
2019-03-01T19:16:46.848Z,6.20
2019-03-01T19:19:24.418Z,6.20
2019-03-01T19:21:55.403Z,6.30
2019-03-01T19:24:26.916Z,6.30
2019-03-01T19:26:58.486Z,6.30
2019-03-01T19:29:30.051Z,6.30
2019-03-01T19:32:01.622Z,6.20
2019-03-01T19:34:33.419Z,6.10
2019-03-01T19:37:05.041Z,6.20
2019-03-01T19:39:37.035Z,6.10
2019-03-01T19:42:08.769Z,6.30
2019-03-01T19:44:40.498Z,6.30
2019-03-01T19:47:12.225Z,6.20
2019-03-01T19:49:48.587Z,6.20
2019-03-01T19:52:18.619Z,6.20
2019-03-01T19:54:50.144Z,6.20
2019-03-01T19:57:23.235Z,6.10
2019-03-01T19:59:54.784Z,6.20
2019-03-01T20:02:31.031Z,6.20
2019-03-01T20:05:02.192Z,6.20
2019-03-01T20:07:35.045Z,6.20
2019-03-01T20:10:07.324Z,6.20
2019-03-01T20:12:40.609Z,6.20
2019-03-01T20:15:16.421Z,6.10
2019-03-01T20:17:48.151Z,6.10
2019-03-01T20:20:21.116Z,6.20
2019-03-01T20:22:54.173Z,6.20
2019-03-01T20:25:47.451Z,6.20
2019-03-01T20:28:15.290Z,6.20
2019-03-01T20:30:47.418Z,6.20
2019-03-01T20:33:23.481Z,6.20
2019-03-01T20:35:53.710Z,6.20
2019-03-01T20:38:25.664Z,6.20
2019-03-01T20:40:59.862Z,6.20
2019-03-01T20:43:33.189Z,6.20
2019-03-01T20:46:07.216Z,6.30
2019-03-01T20:48:41.168Z,6.20
2019-03-01T20:51:12.647Z,6.30
2019-03-01T20:53:45.605Z,6.30
2019-03-01T20:56:17.694Z,6.20
2019-03-01T20:58:49.334Z,6.30
2019-03-01T21:01:21.002Z,6.30
2019-03-01T21:03:52.860Z,6.30
2019-03-01T21:06:26.573Z,6.30
2019-03-01T21:09:00.747Z,6.40
2019-03-01T21:11:35.422Z,6.40
2019-03-01T21:14:07.156Z,6.30
2019-03-01T21:16:44.808Z,6.40
2019-03-01T21:19:16.282Z,6.30
2019-03-01T21:21:47.777Z,6.30
2019-03-01T21:24:19.316Z,6.20
2019-03-01T21:26:52.082Z,6.30
2019-03-01T21:29:24.448Z,6.20
2019-03-01T21:31:59.236Z,6.10
2019-03-01T21:34:31.096Z,6.10
2019-03-01T21:37:04.054Z,6.30
2019-03-01T21:39:35.839Z,6.30
2019-03-01T21:42:07.627Z,6.40
2019-03-01T21:44:42.442Z,6.40
2019-03-01T21:47:15.511Z,6.40
2019-03-01T21:49:47.035Z,6.30
2019-03-01T21:52:18.541Z,6.30
2019-03-01T21:54:51.996Z,6.30
2019-03-01T21:57:27.614Z,6.20
2019-03-01T21:59:59.668Z,6.20
2019-03-01T22:02:31.456Z,6.20
2019-03-01T22:05:04.539Z,6.20
2019-03-01T22:07:37.117Z,6.30
2019-03-01T22:10:11.793Z,6.30
2019-03-01T22:12:44.802Z,6.20
2019-03-01T22:15:21.643Z,6.10
2019-03-01T22:17:55.928Z,6.20
2019-03-01T22:20:29.039Z,6.10
2019-03-01T22:23:02.342Z,6.10
2019-03-01T22:25:37.967Z,6.10
2019-03-01T22:28:10.401Z,6.10
2019-03-01T22:30:42.118Z,6.10
2019-03-01T22:33:17.443Z,6.10
2019-03-01T22:35:48.576Z,6.10
2019-03-01T22:38:20.148Z,6.10
2019-03-01T22:40:51.768Z,6.10
2019-03-01T22:43:26.184Z,5.90
2019-03-01T22:45:57.460Z,5.90
2019-03-01T22:48:29.012Z,5.90
2019-03-01T22:51:00.948Z,5.90
2019-03-01T22:53:32.418Z,5.90
2019-03-01T22:56:04.051Z,5.90
2019-03-01T22:58:36.472Z,5.90
2019-03-01T23:01:16.369Z,5.90
2019-03-01T23:03:54.776Z,5.90
2019-03-01T23:06:24.957Z,6.00
2019-03-01T23:08:56.844Z,6.00
2019-03-01T23:11:28.618Z,6.00
2019-03-01T23:14:01.553Z,6.00
2019-03-01T23:16:37.559Z,6.10
2019-03-01T23:19:12.762Z,6.00
2019-03-01T23:21:44.657Z,6.10
2019-03-01T23:24:16.285Z,6.00
2019-03-01T23:26:48.166Z,6.00
2019-03-01T23:29:20.075Z,5.90
2019-03-01T23:31:51.996Z,6.00
2019-03-01T23:34:23.654Z,5.90
2019-03-01T23:36:55.146Z,5.90
2019-03-01T23:39:26.655Z,5.90
2019-03-01T23:41:58.160Z,5.80
2019-03-01T23:44:29.658Z,5.90
2019-03-01T23:47:02.857Z,5.90
2019-03-01T23:49:34.320Z,5.90
2019-03-01T23:52:05.917Z,5.90
2019-03-01T23:54:40.711Z,5.90
2019-03-01T23:57:10.581Z,6.00
2019-03-01T23:59:42.155Z,5.90
